Time;durP1;ratioP1;P1;durP2;ratioP2;P2;SDS_P1;SDS_P2;PMS_P1;PMS_P2;Temp;Humidity;BMP_temperature;BMP_pressure;BME280_temperature;BME280_humidity;BME280_pressure;Samples;Min_cycle;Max_cycle;Signal;HPM_P1;HPM_P2
2023/10/13 00:01:34;;;;;;;16.33;7.15;;;15.00;99.90;;;;;;5068006;28;20072;-73
2023/10/13 00:04:05;;;;;;;23.70;8.02;;;15.00;99.90;;;;;;5072830;28;20071;-73
2023/10/13 00:06:31;;;;;;;15.15;6.57;;;15.10;99.90;;;;;;5049818;28;20057;-73
2023/10/13 00:08:56;;;;;;;15.48;6.93;;;15.10;99.90;;;;;;5062491;28;20128;-73
2023/10/13 00:11:22;;;;;;;15.05;6.57;;;15.10;99.90;;;;;;5059184;28;20478;-73
2023/10/13 00:13:50;;;;;;;18.67;7.13;;;15.00;99.90;;;;;;5094828;28;20044;-73
2023/10/13 00:16:22;;;;;;;17.50;7.18;;;15.10;99.90;;;;;;5058255;28;20036;-73
2023/10/13 00:18:54;;;;;;;14.27;6.80;;;15.10;99.90;;;;;;5093243;28;20561;-74
2023/10/13 00:21:30;;;;;;;16.75;6.32;;;15.10;99.90;;;;;;5045342;28;20119;-73
2023/10/13 00:23:57;;;;;;;16.58;6.63;;;15.20;99.90;;;;;;5061006;28;20060;-74
2023/10/13 00:26:27;;;;;;;18.50;7.35;;;15.20;99.90;;;;;;5042679;28;20497;-73
2023/10/13 00:29:15;;;;;;;15.60;6.88;;;15.20;99.90;;;;;;5045809;28;20059;-73
2023/10/13 00:31:42;;;;;;;19.58;7.95;;;15.30;99.90;;;;;;5062155;28;20037;-73
2023/10/13 00:34:11;;;;;;;18.48;7.40;;;15.30;99.90;;;;;;5058873;28;20051;-73
2023/10/13 00:36:48;;;;;;;16.50;7.20;;;15.40;99.90;;;;;;5046223;28;20119;-73
2023/10/13 00:39:15;;;;;;;19.40;7.28;;;15.50;99.90;;;;;;5094522;28;20043;-73
2023/10/13 00:41:52;;;;;;;18.70;6.97;;;15.50;99.90;;;;;;5045371;28;20398;-73
2023/10/13 00:44:38;;;;;;;14.68;6.47;;;15.50;99.90;;;;;;5058978;28;20493;-73
2023/10/13 00:47:07;;;;;;;16.67;6.65;;;15.50;99.90;;;;;;5062721;28;20078;-73
2023/10/13 00:49:39;;;;;;;18.45;7.80;;;15.50;99.90;;;;;;5042962;28;20044;-73
2023/10/13 00:52:10;;;;;;;16.27;6.93;;;15.50;99.90;;;;;;5057487;28;20066;-73
2023/10/13 00:54:37;;;;;;;17.45;6.32;;;15.60;99.90;;;;;;5060021;28;20124;-73
2023/10/13 00:57:26;;;;;;;13.25;5.90;;;15.60;99.90;;;;;;5053612;28;20096;-73
2023/10/13 00:59:51;;;;;;;15.05;7.13;;;15.60;99.90;;;;;;5065473;28;20075;-73
2023/10/13 01:05:01;;;;;;;15.30;6.00;;;15.70;99.90;;;;;;5067548;28;20506;-73
2023/10/13 01:07:26;;;;;;;16.73;6.82;;;15.70;99.90;;;;;;5065798;28;20085;-73
2023/10/13 01:09:52;;;;;;;16.20;6.05;;;15.80;99.90;;;;;;5061898;28;20047;-73
2023/10/13 01:12:18;;;;;;;17.85;6.97;;;15.70;99.90;;;;;;5057559;28;20411;-74
2023/10/13 01:14:44;;;;;;;17.08;6.05;;;15.70;99.90;;;;;;5059167;28;20173;-73
2023/10/13 01:17:10;;;;;;;13.90;6.07;;;15.70;99.90;;;;;;5059195;28;20751;-74
2023/10/13 01:19:42;;;;;;;12.70;5.75;;;15.70;99.90;;;;;;5044532;28;20037;-73
2023/10/13 01:22:08;;;;;;;16.33;6.60;;;15.80;99.90;;;;;;5044335;28;20498;-73
2023/10/13 01:24:37;;;;;;;16.30;6.38;;;15.70;99.90;;;;;;5056310;28;20114;-73
2023/10/13 01:27:20;;;;;;;15.50;6.03;;;15.80;99.90;;;;;;5058233;28;20071;-73
2023/10/13 01:29:51;;;;;;;15.77;6.40;;;15.80;99.90;;;;;;5045376;28;20040;-74
2023/10/13 01:32:19;;;;;;;12.82;6.20;;;15.70;99.90;;;;;;5061038;28;20047;-74
2023/10/13 01:34:46;;;;;;;14.98;6.40;;;15.70;99.90;;;;;;5051492;28;20426;-73
2023/10/13 01:37:12;;;;;;;17.65;6.00;;;15.70;99.90;;;;;;5061852;28;20036;-74
2023/10/13 01:39:37;;;;;;;15.60;6.68;;;15.70;99.90;;;;;;5040726;28;20044;-73
2023/10/13 01:42:03;;;;;;;16.63;6.35;;;15.80;99.90;;;;;;5045105;28;20035;-73
2023/10/13 01:44:30;;;;;;;14.43;7.10;;;15.80;99.90;;;;;;5094041;28;20094;-73
2023/10/13 01:47:06;;;;;;;15.55;6.82;;;15.80;99.90;;;;;;5060317;28;20040;-74
2023/10/13 01:49:42;;;;;;;16.83;7.15;;;15.80;99.90;;;;;;5044053;28;20494;-73
2023/10/13 01:52:11;;;;;;;17.20;7.03;;;15.80;99.90;;;;;;5056990;28;20064;-73
2023/10/13 01:54:40;;;;;;;15.52;6.88;;;15.80;99.90;;;;;;5057332;28;20129;-74
2023/10/13 01:57:06;;;;;;;18.05;7.30;;;15.80;99.90;;;;;;5046204;28;20036;-74
2023/10/13 01:59:32;;;;;;;17.90;7.25;;;15.80;99.90;;;;;;5050724;28;20045;-73
2023/10/13 02:02:00;;;;;;;17.40;6.50;;;15.80;99.90;;;;;;5066704;28;20039;-73
2023/10/13 02:04:27;;;;;;;18.55;7.20;;;15.80;99.90;;;;;;5066621;28;20045;-73
2023/10/13 02:06:52;;;;;;;13.98;6.15;;;15.80;99.90;;;;;;5048076;28;20044;-73
2023/10/13 02:09:27;;;;;;;14.90;6.35;;;15.90;99.90;;;;;;5044891;28;20045;-73
2023/10/13 02:11:54;;;;;;;13.15;6.05;;;15.90;99.90;;;;;;5059414;28;20040;-74
2023/10/13 02:14:22;;;;;;;14.90;6.20;;;15.90;99.90;;;;;;5060583;28;20115;-74
2023/10/13 02:17:11;;;;;;;16.38;6.88;;;15.90;99.90;;;;;;5043087;28;20044;-73
2023/10/13 02:19:44;;;;;;;16.42;6.95;;;15.90;99.90;;;;;;5091920;28;20068;-73
2023/10/13 02:22:11;;;;;;;17.92;6.75;;;15.80;99.90;;;;;;5060834;28;20043;-74
2023/10/13 02:24:40;;;;;;;18.05;7.43;;;15.90;99.90;;;;;;5059722;28;20040;-73
2023/10/13 02:27:14;;;;;;;15.52;6.97;;;15.90;99.90;;;;;;5043540;28;20109;-73
2023/10/13 02:29:40;;;;;;;16.45;6.55;;;15.90;99.90;;;;;;5060252;28;20041;-73
2023/10/13 02:32:13;;;;;;;18.52;7.60;;;15.90;99.90;;;;;;5042626;28;20490;-74
2023/10/13 02:34:43;;;;;;;18.40;6.78;;;15.90;99.90;;;;;;5044252;28;20047;-74
2023/10/13 02:37:10;;;;;;;15.57;6.43;;;15.90;99.90;;;;;;5046116;28;20124;-74
2023/10/13 02:39:36;;;;;;;15.30;6.07;;;16.00;99.90;;;;;;5058475;28;20044;-74
2023/10/13 02:42:06;;;;;;;17.88;7.07;;;15.90;99.90;;;;;;5064630;28;20039;-73
2023/10/13 02:44:33;;;;;;;17.42;6.80;;;15.90;99.90;;;;;;5059891;28;20048;-74
2023/10/13 02:46:59;;;;;;;18.67;6.47;;;15.90;99.90;;;;;;5064042;28;20127;-73
2023/10/13 02:49:33;;;;;;;14.15;6.88;;;16.00;99.90;;;;;;5061930;28;20128;-73
2023/10/13 02:52:05;;;;;;;16.53;7.27;;;15.80;99.90;;;;;;5063456;28;20413;-73
2023/10/13 02:54:37;;;;;;;15.20;6.30;;;15.90;99.90;;;;;;5062268;28;20299;-74
2023/10/13 02:57:05;;;;;;;14.00;5.95;;;15.90;99.90;;;;;;5094196;28;20461;-73
2023/10/13 02:59:40;;;;;;;16.50;6.90;;;15.90;99.90;;;;;;5080521;28;20040;-73
2023/10/13 03:02:18;;;;;;;16.27;7.22;;;15.90;99.90;;;;;;5063572;28;20429;-73
2023/10/13 03:04:49;;;;;;;15.70;5.93;;;15.90;99.90;;;;;;5064208;28;21310;-74
2023/10/13 03:07:15;;;;;;;12.48;5.20;;;15.90;99.90;;;;;;5064455;28;20044;-73
2023/10/13 03:09:50;;;;;;;14.65;5.45;;;15.90;99.90;;;;;;5061416;28;20046;-73
2023/10/13 03:12:20;;;;;;;13.35;5.68;;;15.90;99.90;;;;;;5062531;28;20425;-73
2023/10/13 03:14:48;;;;;;;15.82;6.40;;;15.90;99.90;;;;;;5063647;28;20402;-73
2023/10/13 03:17:16;;;;;;;16.10;5.57;;;15.90;99.90;;;;;;5097038;27;20055;-73
2023/10/13 03:19:54;;;;;;;14.65;6.00;;;16.00;99.90;;;;;;5044232;28;20032;-74
2023/10/13 03:22:30;;;;;;;16.88;6.18;;;15.90;99.90;;;;;;5064425;28;20757;-73
2023/10/13 03:24:59;;;;;;;16.48;5.32;;;16.00;99.90;;;;;;5096704;28;20048;-73
2023/10/13 03:27:39;;;;;;;13.68;4.90;;;15.90;99.90;;;;;;5061079;28;20067;-73
2023/10/13 03:30:13;;;;;;;14.80;5.90;;;15.90;99.90;;;;;;5063854;28;20040;-73
2023/10/13 03:32:43;;;;;;;15.48;5.80;;;15.90;99.90;;;;;;5045170;28;20055;-74
2023/10/13 03:35:24;;;;;;;15.10;5.90;;;16.00;99.90;;;;;;5093120;27;20039;-73
2023/10/13 03:37:54;;;;;;;13.55;4.93;;;16.00;99.90;;;;;;5048117;28;20397;-74
2023/10/13 03:43:09;;;;;;;13.63;4.53;;;16.00;99.90;;;;;;5061015;28;20119;-74
2023/10/13 03:45:41;;;;;;;9.82;4.35;;;16.00;99.90;;;;;;5042985;28;20535;-74
2023/10/13 03:51:03;;;;;;;12.35;4.80;;;16.00;99.90;;;;;;5066343;28;20055;-73
2023/10/13 03:53:35;;;;;;;13.13;5.10;;;15.90;99.90;;;;;;5065110;28;20051;-73
2023/10/13 03:56:26;;;;;;;12.43;4.70;;;16.00;99.90;;;;;;5074929;28;20070;-73
2023/10/13 03:58:54;;;;;;;14.50;5.30;;;15.90;99.90;;;;;;5061282;28;20497;-73
2023/10/13 04:01:31;;;;;;;11.43;5.18;;;15.90;99.90;;;;;;5060784;28;20166;-73
2023/10/13 04:04:04;;;;;;;13.82;5.03;;;16.00;99.90;;;;;;5059453;28;20882;-74
2023/10/13 04:17:15;;;;;;;12.98;5.03;;;16.00;99.90;;;;;;5060989;28;20090;-74
2023/10/13 04:20:27;;;;;;;14.40;5.72;;;16.00;99.90;;;;;;5058656;28;20033;-73
2023/10/13 04:23:26;;;;;;;14.13;5.35;;;16.00;99.90;;;;;;5057929;28;20105;-73
2023/10/13 04:25:35;;;;;;;13.90;5.70;;;16.00;99.90;;;;;;5052782;28;20046;-73
2023/10/13 04:41:37;;;;;;;13.88;4.70;;;16.00;99.90;;;;;;5059918;28;20080;-73
2023/10/13 04:49:29;;;;;;;12.35;4.80;;;16.00;99.90;;;;;;5058399;28;20050;-73
2023/10/13 04:51:59;;;;;;;12.40;5.22;;;15.90;99.90;;;;;;5060831;28;20089;-73
2023/10/13 04:54:28;;;;;;;12.85;4.95;;;16.00;99.90;;;;;;5059441;28;20426;-73
2023/10/13 04:57:20;;;;;;;13.73;5.43;;;16.00;99.90;;;;;;5057039;28;20674;-73
2023/10/13 05:46:35;;;;;;;9.27;3.28;;;15.90;99.90;;;;;;5060499;28;20156;-73
2023/10/13 06:28:40;;;;;;;6.35;2.75;;;15.80;99.90;;;;;;5059445;28;21442;-73
2023/10/13 06:29:56;;;;;;;3.78;2.03;;;15.80;99.90;;;;;;5064728;28;20569;-73
2023/10/13 06:32:28;;;;;;;5.22;2.10;;;15.80;99.90;;;;;;5077730;28;20035;-73
2023/10/13 06:34:58;;;;;;;4.88;2.22;;;15.90;99.90;;;;;;5080764;28;20044;-73
2023/10/13 06:37:32;;;;;;;3.70;1.75;;;15.90;99.90;;;;;;5092477;28;20045;-73
2023/10/13 06:40:05;;;;;;;4.60;2.17;;;15.90;99.90;;;;;;5060122;28;20028;-74
2023/10/13 06:42:34;;;;;;;5.03;2.10;;;15.90;99.90;;;;;;5047229;28;20075;-73
2023/10/13 06:45:08;;;;;;;3.55;1.42;;;15.90;99.90;;;;;;5048094;28;20037;-74
2023/10/13 06:47:42;;;;;;;3.25;1.48;;;15.90;99.90;;;;;;5062791;28;20048;-72
2023/10/13 06:50:15;;;;;;;3.80;1.70;;;15.90;99.90;;;;;;5062776;28;20040;-73
2023/10/13 06:52:45;;;;;;;3.05;1.48;;;16.00;99.90;;;;;;5039795;28;20039;-73
2023/10/13 06:55:16;;;;;;;5.07;1.52;;;16.00;99.90;;;;;;5045573;28;20037;-74
2023/10/13 06:57:46;;;;;;;3.63;1.52;;;16.00;99.90;;;;;;5043237;28;20047;-73
2023/10/13 07:03:05;;;;;;;4.20;1.47;;;16.00;99.90;;;;;;5062386;28;20048;-73
2023/10/13 07:05:41;;;;;;;3.63;1.65;;;16.00;99.90;;;;;;5059162;28;20048;-73
2023/10/13 07:08:08;;;;;;;3.30;1.40;;;16.00;99.90;;;;;;5057354;28;20090;-72
2023/10/13 07:10:51;;;;;;;3.45;1.92;;;16.10;99.90;;;;;;5059605;28;20049;-73
2023/10/13 07:13:19;;;;;;;3.90;1.48;;;16.10;99.90;;;;;;5058510;28;20047;-73
2023/10/13 07:15:47;;;;;;;3.60;1.40;;;16.10;99.90;;;;;;5079255;28;20033;-73
2023/10/13 07:18:22;;;;;;;4.88;1.73;;;16.10;99.90;;;;;;5038422;28;20035;-73
2023/10/13 07:20:48;;;;;;;5.43;1.50;;;16.10;99.90;;;;;;5059274;28;20040;-74
2023/10/13 07:23:17;;;;;;;6.45;1.55;;;16.10;99.90;;;;;;5060139;28;20036;-74
2023/10/13 07:26:02;;;;;;;3.05;1.85;;;16.10;99.90;;;;;;5042765;28;20064;-72
2023/10/13 07:28:30;;;;;;;5.65;1.70;;;16.10;99.90;;;;;;5060288;28;20036;-73
2023/10/13 07:33:25;;;;;;;3.75;1.60;;;16.10;99.90;;;;;;5063426;28;20059;-73
2023/10/13 07:36:19;;;;;;;2.78;1.38;;;16.00;99.90;;;;;;5096072;28;20048;-75
2023/10/13 07:38:49;;;;;;;5.90;1.80;;;16.10;99.90;;;;;;5060814;28;20115;-73
2023/10/13 07:41:21;;;;;;;7.50;1.70;;;16.10;99.90;;;;;;5055332;28;20043;-73
2023/10/13 07:43:50;;;;;;;6.03;2.22;;;16.10;99.90;;;;;;5069212;28;20502;-73
2023/10/13 07:46:15;;;;;;;3.53;1.73;;;16.10;99.90;;;;;;5068997;28;20071;-73
2023/10/13 07:48:45;;;;;;;5.72;1.75;;;16.00;99.90;;;;;;5053216;28;20467;-73
2023/10/13 07:51:13;;;;;;;5.53;1.77;;;16.10;99.90;;;;;;5069503;28;20472;-73
2023/10/13 07:53:49;;;;;;;6.13;2.00;;;16.10;99.90;;;;;;5069519;28;20513;-73
2023/10/13 07:56:18;;;;;;;6.53;1.92;;;16.10;99.90;;;;;;5050312;28;20357;-73
2023/10/13 07:59:00;;;;;;;4.43;2.13;;;16.10;99.90;;;;;;5068285;28;20402;-73
2023/10/13 08:01:28;;;;;;;4.13;1.70;;;16.10;99.90;;;;;;5066251;28;20036;-73
2023/10/13 08:04:04;;;;;;;4.72;2.10;;;16.10;99.90;;;;;;5068768;28;20036;-73
2023/10/13 08:06:30;;;;;;;4.93;1.80;;;16.20;99.90;;;;;;5051975;28;20552;-73
2023/10/13 08:09:07;;;;;;;8.77;2.13;;;16.10;99.90;;;;;;5067568;28;20040;-73
2023/10/13 08:11:34;;;;;;;4.20;1.88;;;16.10;99.90;;;;;;5072190;28;20048;-73
2023/10/13 08:14:23;;;;;;;4.85;2.25;;;16.10;99.90;;;;;;5052460;28;20312;-73
2023/10/13 08:19:27;;;;;;;7.35;2.05;;;16.10;99.90;;;;;;5069356;28;20422;-73
2023/10/13 08:21:58;;;;;;;5.28;2.00;;;16.20;99.90;;;;;;5070808;28;20521;-73
2023/10/13 08:25:15;;;;;;;9.77;1.80;;;16.10;99.90;;;;;;5052020;28;20045;-73
2023/10/13 08:48:34;;;;;;;6.18;2.28;;;16.30;99.90;;;;;;5061263;28;20036;-74
2023/10/13 08:50:52;;;;;;;7.82;2.25;;;16.40;99.90;;;;;;5053093;28;20119;-72
2023/10/13 09:06:49;;;;;;;6.93;2.72;;;16.50;99.90;;;;;;5054810;28;20080;-73
2023/10/13 09:09:27;;;;;;;5.18;2.65;;;16.60;99.90;;;;;;5059768;28;20056;-73
2023/10/13 09:12:09;;;;;;;7.38;2.53;;;16.50;99.90;;;;;;5075930;28;20036;-73
2023/10/13 09:14:38;;;;;;;6.00;2.75;;;16.60;99.90;;;;;;5041284;28;20024;-73
2023/10/13 09:17:48;;;;;;;6.50;2.92;;;16.60;99.90;;;;;;5060664;28;20492;-73
2023/10/13 09:19:57;;;;;;;6.13;2.42;;;16.70;99.90;;;;;;5049523;28;20044;-73
2023/10/13 09:22:27;;;;;;;5.18;2.90;;;16.80;99.90;;;;;;5089769;28;20039;-73
2023/10/13 09:25:00;;;;;;;6.32;2.80;;;16.70;99.90;;;;;;5045276;28;20094;-73
2023/10/13 09:27:32;;;;;;;5.97;2.83;;;16.80;99.90;;;;;;5076557;28;20487;-73
2023/10/13 09:32:48;;;;;;;7.65;3.08;;;16.90;99.90;;;;;;5066949;28;20048;-73
2023/10/13 09:35:19;;;;;;;7.05;3.17;;;16.90;99.90;;;;;;5061331;28;20661;-73
2023/10/13 09:37:46;;;;;;;7.10;2.50;;;16.90;99.90;;;;;;5057801;28;20123;-72
2023/10/13 09:40:34;;;;;;;6.47;3.03;;;16.90;99.90;;;;;;5044845;28;20120;-71
2023/10/13 09:43:14;;;;;;;5.32;2.70;;;16.90;99.90;;;;;;5101943;28;20047;-73
2023/10/13 09:46:01;;;;;;;7.47;2.78;;;16.90;99.90;;;;;;5052283;28;20603;-73
2023/10/13 09:48:36;;;;;;;11.77;2.95;;;17.00;99.90;;;;;;5059344;28;20144;-80
2023/10/13 09:51:09;;;;;;;9.60;2.83;;;17.10;99.90;;;;;;5047422;28;20032;-74
2023/10/13 09:53:38;;;;;;;5.13;2.45;;;17.10;99.90;;;;;;5043297;28;20359;-74
2023/10/13 09:56:13;;;;;;;7.90;3.00;;;17.10;99.90;;;;;;5080127;28;20138;-73
2023/10/13 09:59:08;;;;;;;6.20;2.80;;;17.20;99.90;;;;;;5096643;28;20387;-73
2023/10/13 10:01:40;;;;;;;7.43;2.60;;;17.30;99.90;;;;;;5049292;28;20072;-77
2023/10/13 10:04:13;;;;;;;5.63;2.53;;;17.30;99.90;;;;;;5047930;28;20406;-76
2023/10/13 10:06:45;;;;;;;4.75;2.42;;;17.30;99.90;;;;;;5083241;28;20123;-73
2023/10/13 10:09:12;;;;;;;4.07;2.10;;;17.40;99.90;;;;;;5056708;28;20043;-74
2023/10/13 10:12:18;;;;;;;9.63;2.85;;;17.40;99.90;;;;;;5044844;28;20033;-74
2023/10/13 10:15:06;;;;;;;8.35;3.05;;;17.40;99.90;;;;;;5093170;28;20071;-74
2023/10/13 10:17:42;;;;;;;8.63;2.53;;;17.40;99.90;;;;;;5095411;28;20498;-74
2023/10/13 10:20:20;;;;;;;8.70;2.65;;;17.40;99.90;;;;;;5061968;28;20513;-74
2023/10/13 10:23:00;;;;;;;5.07;3.00;;;17.50;99.90;;;;;;5060076;28;20033;-74
2023/10/13 10:25:37;;;;;;;9.30;2.80;;;17.50;99.90;;;;;;5063077;28;20128;-74
2023/10/13 10:28:05;;;;;;;4.95;2.40;;;17.50;99.90;;;;;;5059020;28;20045;-74
2023/10/13 10:30:41;;;;;;;8.60;3.42;;;17.60;99.90;;;;;;5062652;28;20409;-74
2023/10/13 10:33:18;;;;;;;4.55;2.30;;;17.70;99.90;;;;;;5094372;28;20078;-73
2023/10/13 10:35:46;;;;;;;9.45;2.60;;;17.70;99.90;;;;;;5061984;28;20036;-75
2023/10/13 10:38:24;;;;;;;6.70;2.55;;;17.80;99.90;;;;;;5075469;28;20509;-74
2023/10/13 10:40:57;;;;;;;6.72;2.70;;;17.80;99.90;;;;;;5061984;28;20097;-74
2023/10/13 10:43:43;;;;;;;7.88;2.97;;;17.90;99.90;;;;;;5046670;28;20032;-74
2023/10/13 10:46:26;;;;;;;8.30;2.72;;;17.90;99.90;;;;;;5045376;28;21419;-75
2023/10/13 10:49:00;;;;;;;9.07;2.50;;;18.00;99.90;;;;;;5044696;28;20040;-74
2023/10/13 10:51:31;;;;;;;6.30;2.50;;;18.00;99.90;;;;;;5097008;28;20084;-74
2023/10/13 10:53:58;;;;;;;6.03;2.75;;;18.00;99.90;;;;;;5065956;28;20036;-74
2023/10/13 10:59:01;;;;;;;13.75;2.83;;;18.00;99.90;;;;;;5090855;27;20498;-75
2023/10/13 11:01:50;;;;;;;9.27;3.05;;;18.10;99.90;;;;;;5063196;28;20024;-75
2023/10/13 11:04:18;;;;;;;4.68;2.55;;;18.10;99.90;;;;;;5057831;28;20086;-75
2023/10/13 11:06:49;;;;;;;10.93;4.20;;;18.10;99.90;;;;;;5100049;28;20296;-75
2023/10/13 11:09:31;;;;;;;8.18;2.92;;;18.10;99.90;;;;;;5058084;28;20510;-75
2023/10/13 11:12:06;;;;;;;7.18;2.70;;;18.10;99.90;;;;;;5057369;28;20090;-75
2023/10/13 11:14:32;;;;;;;7.07;2.90;;;18.20;99.90;;;;;;5062964;28;20056;-75
2023/10/13 11:17:05;;;;;;;5.20;2.85;;;18.10;99.90;;;;;;5064556;28;20566;-75
2023/10/13 11:19:38;;;;;;;5.30;2.67;;;18.00;99.90;;;;;;5063545;28;20038;-75
2023/10/13 11:22:11;;;;;;;4.53;2.35;;;18.10;99.90;;;;;;5081439;28;20390;-74
2023/10/13 11:24:42;;;;;;;8.50;2.92;;;18.20;99.90;;;;;;5054531;28;20661;-74
2023/10/13 11:27:21;;;;;;;6.80;2.55;;;18.10;99.90;;;;;;5073071;28;20029;-75
2023/10/13 11:29:52;;;;;;;8.80;3.25;;;18.10;99.90;;;;;;5036138;28;20273;-75
2023/10/13 11:32:20;;;;;;;7.32;3.00;;;18.20;99.90;;;;;;5041301;28;20037;-75
2023/10/13 11:34:45;;;;;;;6.88;2.88;;;18.20;99.90;;;;;;5041257;28;20048;-74
2023/10/13 11:37:37;;;;;;;6.93;2.72;;;18.20;99.90;;;;;;5060931;28;20037;-74
2023/10/13 11:40:10;;;;;;;7.85;2.95;;;18.20;99.90;;;;;;5085811;28;20042;-75
2023/10/13 11:42:36;;;;;;;7.18;2.58;;;18.20;99.90;;;;;;5085360;28;20052;-76
2023/10/13 11:47:59;;;;;;;7.28;2.70;;;18.20;99.90;;;;;;5057751;28;20304;-75
2023/10/13 11:50:34;;;;;;;6.53;2.20;;;18.20;99.90;;;;;;5043667;28;20055;-79
2023/10/13 11:53:00;;;;;;;4.72;2.33;;;18.20;99.90;;;;;;5038415;28;20033;-76
2023/10/13 11:55:26;;;;;;;5.47;2.38;;;18.20;99.90;;;;;;5041004;28;20040;-76
2023/10/13 11:57:52;;;;;;;7.68;3.05;;;18.20;99.90;;;;;;5058851;28;20079;-75
2023/10/13 12:00:50;;;;;;;10.13;2.85;;;18.20;99.90;;;;;;5061258;28;20029;-75
2023/10/13 12:08:49;;;;;;;8.48;2.80;;;18.20;99.90;;;;;;5057655;28;20045;-75
2023/10/13 12:11:30;;;;;;;6.70;2.45;;;18.20;99.90;;;;;;5044569;28;20638;-75
2023/10/13 12:13:56;;;;;;;5.60;2.72;;;18.20;99.90;;;;;;5061427;28;20394;-75
2023/10/13 12:16:22;;;;;;;6.07;2.53;;;18.30;99.90;;;;;;5048162;28;20699;-75
2023/10/13 12:18:53;;;;;;;6.00;2.55;;;18.30;99.90;;;;;;5044072;28;20071;-76
2023/10/13 12:21:21;;;;;;;7.82;2.70;;;18.20;99.90;;;;;;5061984;28;20120;-75
2023/10/13 12:23:47;;;;;;;6.13;2.85;;;18.10;99.90;;;;;;5058844;28;20036;-76
2023/10/13 12:26:19;;;;;;;7.75;3.58;;;18.20;99.90;;;;;;5060989;28;20064;-76
2023/10/13 12:28:51;;;;;;;11.02;3.47;;;18.20;99.90;;;;;;5059708;28;20222;-75
2023/10/13 12:31:17;;;;;;;9.45;3.70;;;18.20;99.90;;;;;;5049470;28;20159;-76
2023/10/13 12:33:47;;;;;;;6.90;2.53;;;18.20;99.90;;;;;;5039464;28;20135;-76
2023/10/13 12:52:16;;;;;;;8.18;2.67;;;18.20;99.90;;;;;;5085642;28;20152;-76
2023/10/13 12:57:27;;;;;;;6.32;3.13;;;18.30;99.90;;;;;;5055558;28;20047;-76
2023/10/13 12:59:53;;;;;;;6.05;2.58;;;18.20;99.90;;;;;;5037299;28;20090;-75
2023/10/13 13:02:24;;;;;;;5.88;2.88;;;18.20;99.90;;;;;;5086969;28;20082;-76
2023/10/13 13:04:54;;;;;;;7.45;2.97;;;18.30;99.90;;;;;;5055500;28;20044;-76
2023/10/13 13:07:20;;;;;;;10.38;3.15;;;18.30;99.90;;;;;;5055333;28;20394;-75
2023/10/13 13:09:46;;;;;;;8.05;2.95;;;18.40;99.90;;;;;;5056170;28;20393;-76
2023/10/13 13:12:14;;;;;;;7.53;3.22;;;18.40;99.90;;;;;;5044967;28;20055;-76
2023/10/13 13:14:46;;;;;;;8.63;2.88;;;18.40;99.90;;;;;;5042846;28;20075;-76
2023/10/13 13:17:12;;;;;;;7.38;3.60;;;18.40;99.90;;;;;;5059263;28;20032;-76
2023/10/13 13:19:40;;;;;;;7.35;3.13;;;18.40;99.90;;;;;;5060004;28;20496;-76
2023/10/13 13:22:15;;;;;;;7.03;2.90;;;18.40;99.90;;;;;;5041183;28;20036;-76
2023/10/13 13:24:46;;;;;;;8.18;3.17;;;18.40;99.90;;;;;;5073139;28;20398;-76
2023/10/13 13:27:13;;;;;;;12.10;3.03;;;18.40;99.90;;;;;;5056920;28;20055;-76
2023/10/13 13:29:43;;;;;;;9.07;3.20;;;18.40;99.90;;;;;;5042726;28;20032;-76
2023/10/13 13:32:18;;;;;;;10.80;3.65;;;18.40;99.90;;;;;;5075555;28;20044;-76
2023/10/13 13:34:53;;;;;;;6.78;2.92;;;18.40;99.90;;;;;;5044370;28;20075;-76
2023/10/13 13:37:27;;;;;;;8.75;3.28;;;18.40;99.90;;;;;;5056354;28;20044;-76
2023/10/13 13:39:53;;;;;;;10.77;3.72;;;18.50;99.90;;;;;;5056783;28;20116;-76
2023/10/13 13:42:18;;;;;;;9.10;2.92;;;18.40;99.90;;;;;;5075025;28;20119;-76
2023/10/13 13:44:47;;;;;;;5.90;3.05;;;18.40;99.90;;;;;;5058143;28;20052;-76
2023/10/13 13:47:13;;;;;;;10.07;3.22;;;18.40;99.90;;;;;;5041004;28;20048;-76
2023/10/13 13:49:50;;;;;;;7.20;2.72;;;18.40;99.90;;;;;;5060705;28;20040;-76
2023/10/13 13:52:33;;;;;;;8.88;3.80;;;18.40;99.90;;;;;;5042809;28;20040;-76
2023/10/13 13:55:02;;;;;;;10.90;3.42;;;18.30;99.90;;;;;;5043885;28;20037;-74
2023/10/13 13:57:29;;;;;;;7.93;3.50;;;18.20;99.90;;;;;;5056928;28;20044;-75
2023/10/13 13:59:57;;;;;;;6.25;3.25;;;18.20;99.90;;;;;;5060870;28;20267;-75
2023/10/13 14:02:23;;;;;;;7.47;2.70;;;18.10;99.90;;;;;;5050548;28;20032;-77
2023/10/13 14:04:52;;;;;;;7.30;3.05;;;18.10;99.90;;;;;;5093371;28;20044;-77
2023/10/13 14:07:23;;;;;;;7.05;3.28;;;18.10;99.90;;;;;;5042845;28;20411;-77
2023/10/13 14:09:52;;;;;;;9.20;3.78;;;18.00;99.90;;;;;;5055806;28;20048;-77
2023/10/13 14:12:41;;;;;;;9.18;3.67;;;18.00;99.90;;;;;;5043727;28;20040;-77
2023/10/13 14:15:19;;;;;;;7.72;3.28;;;18.00;99.90;;;;;;5055935;28;20468;-77
2023/10/13 14:17:48;;;;;;;10.98;3.50;;;17.90;99.90;;;;;;5042221;28;20043;-77
2023/10/13 14:20:20;;;;;;;9.13;3.17;;;17.90;99.90;;;;;;5092235;28;20047;-77
2023/10/13 14:22:49;;;;;;;6.72;3.05;;;17.90;99.90;;;;;;5057842;28;20037;-77
2023/10/13 14:25:15;;;;;;;8.55;3.33;;;17.90;99.90;;;;;;5055541;28;20639;-76
2023/10/13 14:27:43;;;;;;;6.80;3.45;;;17.90;99.90;;;;;;5043322;28;20286;-76
2023/10/13 14:30:10;;;;;;;7.68;3.10;;;17.90;99.90;;;;;;5044512;28;20055;-76
2023/10/13 14:32:40;;;;;;;13.05;3.40;;;17.90;99.90;;;;;;5055021;28;20047;-77
2023/10/13 14:35:14;;;;;;;8.43;3.35;;;17.80;99.90;;;;;;5061125;28;20040;-76
2023/10/13 14:37:40;;;;;;;10.27;3.20;;;17.80;99.90;;;;;;5048075;28;20044;-76
2023/10/13 14:40:12;;;;;;;9.13;3.20;;;17.90;99.90;;;;;;5077088;28;20037;-76
2023/10/13 14:42:40;;;;;;;6.90;2.85;;;17.80;99.90;;;;;;5045120;28;20032;-76
2023/10/13 14:45:12;;;;;;;8.63;3.50;;;17.80;99.90;;;;;;5060863;28;20474;-76
2023/10/13 14:47:40;;;;;;;9.02;3.15;;;17.80;99.90;;;;;;5063047;28;20104;-76
2023/10/13 14:50:06;;;;;;;10.45;3.30;;;17.90;99.90;;;;;;5045950;28;20052;-76
2023/10/13 14:52:31;;;;;;;9.60;3.15;;;17.80;99.90;;;;;;5045736;28;20091;-80
2023/10/13 14:54:58;;;;;;;9.30;3.35;;;17.90;99.90;;;;;;5042859;28;20470;-77
2023/10/13 14:57:27;;;;;;;9.32;3.53;;;17.90;99.90;;;;;;5041137;28;20512;-76
2023/10/13 14:59:53;;;;;;;8.07;3.72;;;17.90;99.90;;;;;;5043099;28;20101;-76
2023/10/13 15:02:20;;;;;;;8.18;3.42;;;17.90;99.90;;;;;;5059345;28;20115;-76
2023/10/13 15:04:50;;;;;;;9.80;4.43;;;17.90;99.90;;;;;;5064551;28;20053;-76
2023/10/13 15:07:17;;;;;;;7.63;4.20;;;17.90;99.90;;;;;;5046098;28;20401;-77
2023/10/13 15:09:43;;;;;;;9.55;4.60;;;17.90;99.90;;;;;;5062100;28;20040;-77
2023/10/13 15:12:10;;;;;;;10.38;3.90;;;17.80;99.90;;;;;;5059248;28;20486;-77
2023/10/13 15:14:39;;;;;;;13.35;5.18;;;17.80;99.90;;;;;;5045312;28;20294;-76
2023/10/13 15:17:06;;;;;;;35.95;16.92;;;17.80;99.90;;;;;;5046354;28;20494;-76
2023/10/13 15:19:35;;;;;;;12.27;6.13;;;17.70;99.90;;;;;;5044499;28;20221;-77
2023/10/13 15:22:02;;;;;;;12.48;5.32;;;17.60;99.90;;;;;;5058507;28;20039;-77
2023/10/13 15:24:28;;;;;;;13.90;5.65;;;17.60;99.90;;;;;;5063966;28;20033;-76
2023/10/13 15:27:08;;;;;;;10.27;5.57;;;17.50;99.90;;;;;;5042239;28;20531;-76
2023/10/13 15:29:37;;;;;;;14.07;5.80;;;17.50;99.90;;;;;;5074412;28;20866;-76
2023/10/13 15:34:29;;;;;;;10.95;4.22;;;17.40;99.90;;;;;;5064195;28;20054;-77
2023/10/13 15:36:55;;;;;;;12.50;4.75;;;17.40;99.90;;;;;;5060160;28;20032;-77
2023/10/13 15:39:28;;;;;;;12.07;4.75;;;17.40;99.90;;;;;;5062660;28;20044;-77
2023/10/13 15:41:58;;;;;;;10.65;4.07;;;17.50;99.90;;;;;;5043144;28;20372;-78
2023/10/13 15:44:24;;;;;;;10.55;4.43;;;17.40;99.90;;;;;;5063021;28;20040;-77
2023/10/13 15:46:55;;;;;;;6.57;3.45;;;17.30;99.90;;;;;;5045367;28;20501;-77
2023/10/13 15:49:21;;;;;;;7.25;3.47;;;17.30;99.90;;;;;;5047449;28;20043;-77
2023/10/13 15:51:47;;;;;;;10.77;3.65;;;17.30;99.90;;;;;;5061372;28;20041;-77
2023/10/13 15:54:16;;;;;;;12.77;3.92;;;17.30;99.90;;;;;;5047080;28;20055;-76
2023/10/13 15:56:45;;;;;;;10.45;3.50;;;17.30;99.90;;;;;;5059935;28;20079;-76
2023/10/13 15:59:11;;;;;;;10.77;4.05;;;17.30;99.90;;;;;;5060055;28;20404;-76
2023/10/13 16:01:40;;;;;;;12.50;4.00;;;17.30;99.90;;;;;;5045214;28;20024;-78
2023/10/13 16:04:13;;;;;;;9.20;3.67;;;17.30;99.90;;;;;;5040846;28;20036;-75
2023/10/13 16:06:40;;;;;;;9.43;4.32;;;17.30;99.90;;;;;;5061648;28;20119;-75
2023/10/13 16:09:16;;;;;;;8.88;4.88;;;17.30;99.90;;;;;;5063066;28;20066;-75
2023/10/13 16:11:42;;;;;;;;;;;17.30;99.90;;;;;;5094984;28;20123;-75
2023/10/13 16:14:15;;;;;;;9.82;3.45;;;17.30;99.90;;;;;;5059939;28;19923;-75
2023/10/13 16:16:44;;;;;;;5.82;3.28;;;17.30;99.90;;;;;;5045611;28;20444;-75
2023/10/13 16:19:10;;;;;;;8.05;3.50;;;17.20;99.90;;;;;;5075845;28;20030;-75
2023/10/13 16:21:39;;;;;;;7.32;2.80;;;17.30;99.90;;;;;;5045647;28;20040;-74
2023/10/13 16:24:05;;;;;;;5.25;2.53;;;17.20;99.90;;;;;;5045155;28;20036;-74
2023/10/13 16:26:31;;;;;;;14.90;5.95;;;17.20;99.90;;;;;;5062809;28;20040;-74